sensor_id;sensor_type;location;lat;lon;timestamp;P1;durP1;ratioP1;P2;durP2;ratioP2
8540;SDS011;4308;51.294;6.590;2023-05-14T00:01:19;10.17;;;9.17;;
8540;SDS011;4308;51.294;6.590;2023-05-14T00:03:46;12.53;;;11.23;;
8540;SDS011;4308;51.294;6.590;2023-05-14T00:06:14;11.13;;;10.13;;
8540;SDS011;4308;51.294;6.590;2023-05-14T00:08:42;11.83;;;10.67;;
8540;SDS011;4308;51.294;6.590;2023-05-14T00:11:09;11.57;;;10.40;;
8540;SDS011;4308;51.294;6.590;2023-05-14T00:13:37;12.20;;;10.83;;
8540;SDS011;4308;51.294;6.590;2023-05-14T00:16:04;11.77;;;10.40;;
8540;SDS011;4308;51.294;6.590;2023-05-14T00:18:32;12.23;;;10.90;;
8540;SDS011;4308;51.294;6.590;2023-05-14T00:21:00;11.90;;;10.70;;
8540;SDS011;4308;51.294;6.590;2023-05-14T00:23:27;11.77;;;9.97;;
8540;SDS011;4308;51.294;6.590;2023-05-14T00:25:55;13.07;;;11.77;;
8540;SDS011;4308;51.294;6.590;2023-05-14T00:28:22;13.43;;;11.23;;
8540;SDS011;4308;51.294;6.590;2023-05-14T00:30:50;12.33;;;10.93;;
8540;SDS011;4308;51.294;6.590;2023-05-14T00:33:17;13.90;;;11.67;;
8540;SDS011;4308;51.294;6.590;2023-05-14T00:35:45;12.47;;;11.17;;
8540;SDS011;4308;51.294;6.590;2023-05-14T00:38:13;13.93;;;12.53;;
8540;SDS011;4308;51.294;6.590;2023-05-14T00:40:41;13.50;;;12.10;;
8540;SDS011;4308;51.294;6.590;2023-05-14T00:43:08;13.33;;;12.03;;
8540;SDS011;4308;51.294;6.590;2023-05-14T00:45:36;13.60;;;12.20;;
8540;SDS011;4308;51.294;6.590;2023-05-14T00:48:04;13.57;;;12.00;;
8540;SDS011;4308;51.294;6.590;2023-05-14T00:50:32;13.67;;;12.27;;
8540;SDS011;4308;51.294;6.590;2023-05-14T00:52:59;15.17;;;11.67;;
8540;SDS011;4308;51.294;6.590;2023-05-14T00:55:27;15.03;;;13.00;;
8540;SDS011;4308;51.294;6.590;2023-05-14T00:57:58;17.03;;;14.87;;
8540;SDS011;4308;51.294;6.590;2023-05-14T01:00:26;17.30;;;15.50;;
8540;SDS011;4308;51.294;6.590;2023-05-14T01:02:53;17.30;;;15.50;;
8540;SDS011;4308;51.294;6.590;2023-05-14T01:05:21;17.93;;;16.03;;
8540;SDS011;4308;51.294;6.590;2023-05-14T01:08:07;17.47;;;15.60;;
8540;SDS011;4308;51.294;6.590;2023-05-14T01:10:44;20.83;;;16.70;;
8540;SDS011;4308;51.294;6.590;2023-05-14T01:13:17;19.07;;;16.50;;
8540;SDS011;4308;51.294;6.590;2023-05-14T01:15:46;19.20;;;17.20;;
8540;SDS011;4308;51.294;6.590;2023-05-14T01:18:15;20.63;;;18.53;;
8540;SDS011;4308;51.294;6.590;2023-05-14T01:20:44;18.97;;;17.03;;
8540;SDS011;4308;51.294;6.590;2023-05-14T01:23:12;19.50;;;17.60;;
8540;SDS011;4308;51.294;6.590;2023-05-14T01:25:39;20.03;;;17.93;;
8540;SDS011;4308;51.294;6.590;2023-05-14T01:28:17;19.83;;;17.60;;
8540;SDS011;4308;51.294;6.590;2023-05-14T01:30:56;19.10;;;17.10;;
8540;SDS011;4308;51.294;6.590;2023-05-14T01:33:26;22.43;;;18.90;;
8540;SDS011;4308;51.294;6.590;2023-05-14T01:35:55;20.53;;;18.43;;
8540;SDS011;4308;51.294;6.590;2023-05-14T01:38:23;21.47;;;19.37;;
8540;SDS011;4308;51.294;6.590;2023-05-14T01:40:51;20.50;;;18.33;;
8540;SDS011;4308;51.294;6.590;2023-05-14T01:43:19;18.97;;;16.93;;
8540;SDS011;4308;51.294;6.590;2023-05-14T01:45:47;20.17;;;17.67;;
8540;SDS011;4308;51.294;6.590;2023-05-14T01:48:14;19.03;;;16.97;;
8540;SDS011;4308;51.294;6.590;2023-05-14T01:50:42;19.53;;;17.63;;
8540;SDS011;4308;51.294;6.590;2023-05-14T01:53:10;20.37;;;18.27;;
8540;SDS011;4308;51.294;6.590;2023-05-14T01:55:37;23.23;;;19.77;;
8540;SDS011;4308;51.294;6.590;2023-05-14T01:58:05;21.13;;;18.93;;
8540;SDS011;4308;51.294;6.590;2023-05-14T02:00:32;21.23;;;18.97;;
8540;SDS011;4308;51.294;6.590;2023-05-14T02:03:00;22.97;;;20.57;;
8540;SDS011;4308;51.294;6.590;2023-05-14T02:05:28;23.03;;;20.40;;
8540;SDS011;4308;51.294;6.590;2023-05-14T02:07:55;21.63;;;19.40;;
8540;SDS011;4308;51.294;6.590;2023-05-14T02:10:23;24.03;;;18.97;;
8540;SDS011;4308;51.294;6.590;2023-05-14T02:12:51;24.57;;;21.00;;
8540;SDS011;4308;51.294;6.590;2023-05-14T02:15:18;22.10;;;19.80;;
8540;SDS011;4308;51.294;6.590;2023-05-14T02:17:46;21.50;;;19.20;;
8540;SDS011;4308;51.294;6.590;2023-05-14T02:20:13;21.53;;;19.27;;
8540;SDS011;4308;51.294;6.590;2023-05-14T02:22:41;24.00;;;20.47;;
8540;SDS011;4308;51.294;6.590;2023-05-14T02:25:09;24.10;;;21.50;;
8540;SDS011;4308;51.294;6.590;2023-05-14T02:27:36;21.93;;;19.70;;
8540;SDS011;4308;51.294;6.590;2023-05-14T02:30:04;24.97;;;20.43;;
8540;SDS011;4308;51.294;6.590;2023-05-14T02:32:32;24.37;;;21.77;;
8540;SDS011;4308;51.294;6.590;2023-05-14T02:34:59;24.70;;;22.10;;
8540;SDS011;4308;51.294;6.590;2023-05-14T02:37:27;24.80;;;20.57;;
8540;SDS011;4308;51.294;6.590;2023-05-14T02:39:54;22.27;;;20.00;;
8540;SDS011;4308;51.294;6.590;2023-05-14T02:42:22;22.47;;;20.07;;
8540;SDS011;4308;51.294;6.590;2023-05-14T02:44:49;23.00;;;20.53;;
8540;SDS011;4308;51.294;6.590;2023-05-14T02:47:17;24.70;;;20.83;;
8540;SDS011;4308;51.294;6.590;2023-05-14T02:49:45;23.17;;;20.83;;
8540;SDS011;4308;51.294;6.590;2023-05-14T02:52:12;25.67;;;20.67;;
8540;SDS011;4308;51.294;6.590;2023-05-14T02:54:40;25.13;;;22.43;;
8540;SDS011;4308;51.294;6.590;2023-05-14T02:57:07;22.73;;;20.30;;
8540;SDS011;4308;51.294;6.590;2023-05-14T02:59:35;22.10;;;19.90;;
8540;SDS011;4308;51.294;6.590;2023-05-14T03:02:03;23.73;;;21.20;;
8540;SDS011;4308;51.294;6.590;2023-05-14T03:04:31;22.47;;;20.07;;
8540;SDS011;4308;51.294;6.590;2023-05-14T03:06:59;23.63;;;19.90;;
8540;SDS011;4308;51.294;6.590;2023-05-14T03:09:26;23.73;;;20.87;;
8540;SDS011;4308;51.294;6.590;2023-05-14T03:11:54;23.87;;;21.47;;
8540;SDS011;4308;51.294;6.590;2023-05-14T03:14:21;22.93;;;20.60;;
8540;SDS011;4308;51.294;6.590;2023-05-14T03:16:49;22.60;;;20.20;;
8540;SDS011;4308;51.294;6.590;2023-05-14T03:19:16;23.60;;;20.53;;
8540;SDS011;4308;51.294;6.590;2023-05-14T03:21:44;22.43;;;20.03;;
8540;SDS011;4308;51.294;6.590;2023-05-14T03:24:11;23.93;;;20.03;;
8540;SDS011;4308;51.294;6.590;2023-05-14T03:26:39;21.57;;;19.37;;
8540;SDS011;4308;51.294;6.590;2023-05-14T03:29:06;26.17;;;20.40;;
8540;SDS011;4308;51.294;6.590;2023-05-14T03:31:34;21.70;;;19.50;;
8540;SDS011;4308;51.294;6.590;2023-05-14T03:34:01;21.47;;;19.10;;
8540;SDS011;4308;51.294;6.590;2023-05-14T03:36:29;22.57;;;20.17;;
8540;SDS011;4308;51.294;6.590;2023-05-14T03:38:57;21.20;;;18.63;;
8540;SDS011;4308;51.294;6.590;2023-05-14T03:41:24;22.13;;;19.83;;
8540;SDS011;4308;51.294;6.590;2023-05-14T03:43:52;22.63;;;19.60;;
8540;SDS011;4308;51.294;6.590;2023-05-14T03:46:19;23.97;;;20.37;;
8540;SDS011;4308;51.294;6.590;2023-05-14T03:48:47;24.23;;;20.57;;
8540;SDS011;4308;51.294;6.590;2023-05-14T03:51:15;24.00;;;21.40;;
8540;SDS011;4308;51.294;6.590;2023-05-14T03:53:42;22.50;;;20.10;;
8540;SDS011;4308;51.294;6.590;2023-05-14T03:56:10;26.17;;;20.80;;
8540;SDS011;4308;51.294;6.590;2023-05-14T03:58:37;23.10;;;20.70;;
8540;SDS011;4308;51.294;6.590;2023-05-14T04:01:05;22.87;;;20.60;;
8540;SDS011;4308;51.294;6.590;2023-05-14T04:03:32;24.50;;;21.33;;
8540;SDS011;4308;51.294;6.590;2023-05-14T04:06:01;24.43;;;21.93;;
8540;SDS011;4308;51.294;6.590;2023-05-14T04:08:28;24.17;;;21.40;;
8540;SDS011;4308;51.294;6.590;2023-05-14T04:10:56;23.90;;;21.17;;
8540;SDS011;4308;51.294;6.590;2023-05-14T04:13:23;23.40;;;21.10;;
8540;SDS011;4308;51.294;6.590;2023-05-14T04:15:51;24.27;;;21.93;;
8540;SDS011;4308;51.294;6.590;2023-05-14T04:18:18;22.67;;;20.30;;
8540;SDS011;4308;51.294;6.590;2023-05-14T04:20:46;21.67;;;19.37;;
8540;SDS011;4308;51.294;6.590;2023-05-14T04:23:13;22.47;;;20.07;;
8540;SDS011;4308;51.294;6.590;2023-05-14T04:25:41;22.83;;;20.53;;
8540;SDS011;4308;51.294;6.590;2023-05-14T04:28:08;23.27;;;20.60;;
8540;SDS011;4308;51.294;6.590;2023-05-14T04:30:36;23.43;;;19.87;;
8540;SDS011;4308;51.294;6.590;2023-05-14T04:33:04;21.43;;;19.23;;
8540;SDS011;4308;51.294;6.590;2023-05-14T04:35:31;19.07;;;17.27;;
8540;SDS011;4308;51.294;6.590;2023-05-14T04:37:59;21.57;;;18.07;;
8540;SDS011;4308;51.294;6.590;2023-05-14T04:40:26;18.97;;;17.03;;
8540;SDS011;4308;51.294;6.590;2023-05-14T04:42:54;17.23;;;15.43;;
8540;SDS011;4308;51.294;6.590;2023-05-14T04:45:22;20.30;;;16.07;;
8540;SDS011;4308;51.294;6.590;2023-05-14T04:47:49;16.63;;;15.13;;
8540;SDS011;4308;51.294;6.590;2023-05-14T04:50:17;14.60;;;12.80;;
8540;SDS011;4308;51.294;6.590;2023-05-14T04:52:44;15.47;;;13.97;;
8540;SDS011;4308;51.294;6.590;2023-05-14T04:55:12;16.10;;;13.03;;
8540;SDS011;4308;51.294;6.590;2023-05-14T04:57:40;13.30;;;11.90;;
8540;SDS011;4308;51.294;6.590;2023-05-14T05:00:07;13.50;;;12.10;;
8540;SDS011;4308;51.294;6.590;2023-05-14T05:02:35;15.07;;;13.57;;
8540;SDS011;4308;51.294;6.590;2023-05-14T05:05:03;16.23;;;14.50;;
8540;SDS011;4308;51.294;6.590;2023-05-14T05:07:30;15.63;;;14.33;;
8540;SDS011;4308;51.294;6.590;2023-05-14T05:09:58;16.70;;;15.03;;
8540;SDS011;4308;51.294;6.590;2023-05-14T05:12:25;15.70;;;14.00;;
8540;SDS011;4308;51.294;6.590;2023-05-14T05:14:53;16.03;;;14.37;;
8540;SDS011;4308;51.294;6.590;2023-05-14T05:17:20;16.80;;;13.00;;
8540;SDS011;4308;51.294;6.590;2023-05-14T05:19:48;14.90;;;12.87;;
8540;SDS011;4308;51.294;6.590;2023-05-14T05:22:15;13.60;;;12.13;;
8540;SDS011;4308;51.294;6.590;2023-05-14T05:24:43;14.97;;;13.47;;
8540;SDS011;4308;51.294;6.590;2023-05-14T05:27:11;13.50;;;12.23;;
8540;SDS011;4308;51.294;6.590;2023-05-14T05:29:38;15.20;;;11.93;;
8540;SDS011;4308;51.294;6.590;2023-05-14T05:32:06;14.27;;;12.30;;
8540;SDS011;4308;51.294;6.590;2023-05-14T05:34:33;14.93;;;13.30;;
8540;SDS011;4308;51.294;6.590;2023-05-14T05:37:01;15.03;;;13.50;;
8540;SDS011;4308;51.294;6.590;2023-05-14T05:39:29;14.03;;;12.63;;
8540;SDS011;4308;51.294;6.590;2023-05-14T05:41:56;13.77;;;12.37;;
8540;SDS011;4308;51.294;6.590;2023-05-14T05:44:24;14.17;;;12.77;;
8540;SDS011;4308;51.294;6.590;2023-05-14T05:46:51;14.60;;;13.17;;
8540;SDS011;4308;51.294;6.590;2023-05-14T05:49:19;14.53;;;12.63;;
8540;SDS011;4308;51.294;6.590;2023-05-14T05:51:47;13.20;;;11.90;;
8540;SDS011;4308;51.294;6.590;2023-05-14T05:54:14;15.33;;;13.17;;
8540;SDS011;4308;51.294;6.590;2023-05-14T05:56:42;14.40;;;13.10;;
8540;SDS011;4308;51.294;6.590;2023-05-14T05:59:09;15.43;;;13.77;;
8540;SDS011;4308;51.294;6.590;2023-05-14T06:01:37;14.87;;;13.37;;
8540;SDS011;4308;51.294;6.590;2023-05-14T06:04:04;14.97;;;12.53;;
8540;SDS011;4308;51.294;6.590;2023-05-14T06:06:32;14.60;;;13.00;;
8540;SDS011;4308;51.294;6.590;2023-05-14T06:09:00;13.87;;;12.47;;
8540;SDS011;4308;51.294;6.590;2023-05-14T06:11:27;13.60;;;12.30;;
8540;SDS011;4308;51.294;6.590;2023-05-14T06:13:55;15.57;;;13.20;;
8540;SDS011;4308;51.294;6.590;2023-05-14T06:16:22;15.40;;;13.90;;
8540;SDS011;4308;51.294;6.590;2023-05-14T06:18:50;18.47;;;14.23;;
8540;SDS011;4308;51.294;6.590;2023-05-14T06:21:18;14.93;;;13.57;;
8540;SDS011;4308;51.294;6.590;2023-05-14T06:23:45;14.60;;;13.10;;
8540;SDS011;4308;51.294;6.590;2023-05-14T06:26:13;14.43;;;12.93;;
8540;SDS011;4308;51.294;6.590;2023-05-14T06:28:40;14.43;;;13.07;;
8540;SDS011;4308;51.294;6.590;2023-05-14T06:31:08;14.77;;;13.27;;
8540;SDS011;4308;51.294;6.590;2023-05-14T06:33:35;16.27;;;14.57;;
8540;SDS011;4308;51.294;6.590;2023-05-14T06:36:03;14.43;;;13.00;;
8540;SDS011;4308;51.294;6.590;2023-05-14T06:38:31;17.77;;;14.37;;
8540;SDS011;4308;51.294;6.590;2023-05-14T06:40:59;15.67;;;14.07;;
8540;SDS011;4308;51.294;6.590;2023-05-14T06:43:26;16.17;;;14.53;;
8540;SDS011;4308;51.294;6.590;2023-05-14T06:45:54;17.93;;;16.23;;
8540;SDS011;4308;51.294;6.590;2023-05-14T06:48:21;18.67;;;16.83;;
8540;SDS011;4308;51.294;6.590;2023-05-14T06:50:49;16.90;;;15.37;;
8540;SDS011;4308;51.294;6.590;2023-05-14T06:53:17;17.70;;;16.00;;
8540;SDS011;4308;51.294;6.590;2023-05-14T06:55:48;18.73;;;16.87;;
8540;SDS011;4308;51.294;6.590;2023-05-14T06:58:15;17.57;;;15.73;;
8540;SDS011;4308;51.294;6.590;2023-05-14T07:00:43;19.03;;;17.10;;
8540;SDS011;4308;51.294;6.590;2023-05-14T07:03:10;18.83;;;16.97;;
8540;SDS011;4308;51.294;6.590;2023-05-14T07:05:38;18.40;;;16.70;;
8540;SDS011;4308;51.294;6.590;2023-05-14T07:08:06;18.07;;;16.27;;
8540;SDS011;4308;51.294;6.590;2023-05-14T07:10:33;19.17;;;17.20;;
8540;SDS011;4308;51.294;6.590;2023-05-14T07:13:01;20.23;;;17.87;;
8540;SDS011;4308;51.294;6.590;2023-05-14T07:15:28;20.07;;;18.10;;
8540;SDS011;4308;51.294;6.590;2023-05-14T07:17:56;18.93;;;16.97;;
8540;SDS011;4308;51.294;6.590;2023-05-14T07:20:23;20.63;;;18.57;;
8540;SDS011;4308;51.294;6.590;2023-05-14T07:22:51;22.67;;;17.43;;
8540;SDS011;4308;51.294;6.590;2023-05-14T07:25:19;23.10;;;17.67;;
8540;SDS011;4308;51.294;6.590;2023-05-14T07:27:47;18.47;;;16.67;;
8540;SDS011;4308;51.294;6.590;2023-05-14T07:30:15;19.70;;;17.53;;
8540;SDS011;4308;51.294;6.590;2023-05-14T07:32:43;21.07;;;18.87;;
8540;SDS011;4308;51.294;6.590;2023-05-14T07:35:10;20.20;;;18.23;;
8540;SDS011;4308;51.294;6.590;2023-05-14T07:37:38;18.40;;;16.50;;
8540;SDS011;4308;51.294;6.590;2023-05-14T07:40:06;19.53;;;17.73;;
8540;SDS011;4308;51.294;6.590;2023-05-14T07:42:33;21.47;;;17.83;;
8540;SDS011;4308;51.294;6.590;2023-05-14T07:45:03;20.03;;;17.97;;
8540;SDS011;4308;51.294;6.590;2023-05-14T07:47:31;21.13;;;18.17;;
8540;SDS011;4308;51.294;6.590;2023-05-14T07:49:59;20.33;;;18.23;;
8540;SDS011;4308;51.294;6.590;2023-05-14T07:52:29;20.73;;;17.83;;
8540;SDS011;4308;51.294;6.590;2023-05-14T07:54:56;19.23;;;17.20;;
8540;SDS011;4308;51.294;6.590;2023-05-14T07:57:24;19.67;;;17.67;;
8540;SDS011;4308;51.294;6.590;2023-05-14T07:59:51;19.23;;;17.23;;
8540;SDS011;4308;51.294;6.590;2023-05-14T08:02:19;18.70;;;16.87;;
8540;SDS011;4308;51.294;6.590;2023-05-14T08:04:47;23.27;;;18.70;;
8540;SDS011;4308;51.294;6.590;2023-05-14T08:07:14;21.37;;;18.47;;
8540;SDS011;4308;51.294;6.590;2023-05-14T08:09:42;21.27;;;18.70;;
8540;SDS011;4308;51.294;6.590;2023-05-14T08:12:09;19.60;;;17.63;;
8540;SDS011;4308;51.294;6.590;2023-05-14T08:14:37;18.40;;;16.60;;
8540;SDS011;4308;51.294;6.590;2023-05-14T08:17:05;19.03;;;17.03;;
8540;SDS011;4308;51.294;6.590;2023-05-14T08:19:32;19.50;;;17.50;;
8540;SDS011;4308;51.294;6.590;2023-05-14T08:22:00;19.90;;;17.93;;
8540;SDS011;4308;51.294;6.590;2023-05-14T08:24:28;18.80;;;16.10;;
8540;SDS011;4308;51.294;6.590;2023-05-14T08:26:55;19.33;;;17.33;;
8540;SDS011;4308;51.294;6.590;2023-05-14T08:29:23;20.23;;;18.23;;
8540;SDS011;4308;51.294;6.590;2023-05-14T08:31:50;19.33;;;17.23;;
8540;SDS011;4308;51.294;6.590;2023-05-14T08:34:18;18.33;;;16.53;;
8540;SDS011;4308;51.294;6.590;2023-05-14T08:36:46;18.93;;;16.90;;
8540;SDS011;4308;51.294;6.590;2023-05-14T08:39:13;17.90;;;16.00;;
8540;SDS011;4308;51.294;6.590;2023-05-14T08:41:41;17.50;;;15.83;;
8540;SDS011;4308;51.294;6.590;2023-05-14T08:44:12;18.73;;;15.70;;
8540;SDS011;4308;51.294;6.590;2023-05-14T08:46:40;18.00;;;16.07;;
8540;SDS011;4308;51.294;6.590;2023-05-14T08:49:20;18.87;;;16.67;;
8540;SDS011;4308;51.294;6.590;2023-05-14T08:51:50;19.80;;;17.93;;
8540;SDS011;4308;51.294;6.590;2023-05-14T08:54:18;19.17;;;17.10;;
8540;SDS011;4308;51.294;6.590;2023-05-14T08:56:45;19.07;;;16.37;;
8540;SDS011;4308;51.294;6.590;2023-05-14T08:59:16;18.50;;;16.70;;
8540;SDS011;4308;51.294;6.590;2023-05-14T09:01:45;17.67;;;15.80;;
8540;SDS011;4308;51.294;6.590;2023-05-14T09:04:14;17.40;;;15.40;;
8540;SDS011;4308;51.294;6.590;2023-05-14T09:06:42;17.30;;;15.37;;
8540;SDS011;4308;51.294;6.590;2023-05-14T09:09:09;16.50;;;14.83;;
8540;SDS011;4308;51.294;6.590;2023-05-14T09:11:40;15.80;;;14.30;;
8540;SDS011;4308;51.294;6.590;2023-05-14T09:14:08;16.87;;;15.17;;
8540;SDS011;4308;51.294;6.590;2023-05-14T09:16:36;17.47;;;15.00;;
8540;SDS011;4308;51.294;6.590;2023-05-14T09:19:05;17.37;;;15.50;;
8540;SDS011;4308;51.294;6.590;2023-05-14T09:21:33;15.53;;;13.93;;
8540;SDS011;4308;51.294;6.590;2023-05-14T09:24:01;15.40;;;13.83;;
8540;SDS011;4308;51.294;6.590;2023-05-14T09:26:30;12.40;;;10.30;;
8540;SDS011;4308;51.294;6.590;2023-05-14T09:28:58;11.43;;;8.97;;
8540;SDS011;4308;51.294;6.590;2023-05-14T09:31:28;12.87;;;10.33;;
8540;SDS011;4308;51.294;6.590;2023-05-14T09:33:56;10.80;;;9.80;;
8540;SDS011;4308;51.294;6.590;2023-05-14T09:36:24;12.30;;;10.10;;
8540;SDS011;4308;51.294;6.590;2023-05-14T09:38:52;10.60;;;9.37;;
8540;SDS011;4308;51.294;6.590;2023-05-14T09:41:22;15.07;;;10.50;;
8540;SDS011;4308;51.294;6.590;2023-05-14T09:43:50;17.23;;;12.87;;
8540;SDS011;4308;51.294;6.590;2023-05-14T09:46:18;15.30;;;11.63;;
8540;SDS011;4308;51.294;6.590;2023-05-14T09:48:45;20.10;;;12.30;;
8540;SDS011;4308;51.294;6.590;2023-05-14T09:51:13;14.00;;;11.67;;
8540;SDS011;4308;51.294;6.590;2023-05-14T09:53:40;20.23;;;12.60;;
8540;SDS011;4308;51.294;6.590;2023-05-14T09:56:09;17.00;;;11.93;;
8540;SDS011;4308;51.294;6.590;2023-05-14T09:58:37;15.40;;;12.67;;
8540;SDS011;4308;51.294;6.590;2023-05-14T10:01:04;16.73;;;12.90;;
8540;SDS011;4308;51.294;6.590;2023-05-14T10:03:32;14.93;;;12.73;;
8540;SDS011;4308;51.294;6.590;2023-05-14T10:06:03;19.10;;;12.87;;
8540;SDS011;4308;51.294;6.590;2023-05-14T10:08:34;17.37;;;12.53;;
8540;SDS011;4308;51.294;6.590;2023-05-14T10:11:03;14.33;;;10.83;;
8540;SDS011;4308;51.294;6.590;2023-05-14T10:13:38;14.77;;;10.90;;
8540;SDS011;4308;51.294;6.590;2023-05-14T10:16:13;14.40;;;11.47;;
8540;SDS011;4308;51.294;6.590;2023-05-14T10:18:44;14.87;;;11.30;;
8540;SDS011;4308;51.294;6.590;2023-05-14T10:21:13;16.60;;;11.13;;
8540;SDS011;4308;51.294;6.590;2023-05-14T10:23:41;13.00;;;9.97;;
8540;SDS011;4308;51.294;6.590;2023-05-14T10:26:09;11.87;;;9.43;;
8540;SDS011;4308;51.294;6.590;2023-05-14T10:28:37;14.33;;;8.93;;
8540;SDS011;4308;51.294;6.590;2023-05-14T10:31:04;12.63;;;9.50;;
8540;SDS011;4308;51.294;6.590;2023-05-14T10:33:34;12.07;;;9.10;;
8540;SDS011;4308;51.294;6.590;2023-05-14T10:36:12;16.90;;;13.70;;
8540;SDS011;4308;51.294;6.590;2023-05-14T10:38:39;14.63;;;13.07;;
8540;SDS011;4308;51.294;6.590;2023-05-14T10:41:13;15.00;;;12.63;;
8540;SDS011;4308;51.294;6.590;2023-05-14T10:43:43;16.33;;;9.70;;
8540;SDS011;4308;51.294;6.590;2023-05-14T10:46:11;12.83;;;7.90;;
8540;SDS011;4308;51.294;6.590;2023-05-14T10:48:42;12.47;;;7.70;;
8540;SDS011;4308;51.294;6.590;2023-05-14T10:51:10;10.13;;;7.60;;
8540;SDS011;4308;51.294;6.590;2023-05-14T10:53:39;13.97;;;11.47;;
8540;SDS011;4308;51.294;6.590;2023-05-14T10:56:07;14.33;;;11.67;;
8540;SDS011;4308;51.294;6.590;2023-05-14T10:58:35;16.60;;;11.27;;
8540;SDS011;4308;51.294;6.590;2023-05-14T11:01:04;12.90;;;9.93;;
8540;SDS011;4308;51.294;6.590;2023-05-14T11:03:37;11.57;;;9.27;;
8540;SDS011;4308;51.294;6.590;2023-05-14T11:06:05;13.50;;;10.27;;
8540;SDS011;4308;51.294;6.590;2023-05-14T11:08:33;16.27;;;10.67;;
8540;SDS011;4308;51.294;6.590;2023-05-14T11:11:01;12.23;;;10.87;;
8540;SDS011;4308;51.294;6.590;2023-05-14T11:13:28;11.70;;;9.43;;
8540;SDS011;4308;51.294;6.590;2023-05-14T11:15:56;11.53;;;9.37;;
8540;SDS011;4308;51.294;6.590;2023-05-14T11:18:34;7.87;;;6.67;;
8540;SDS011;4308;51.294;6.590;2023-05-14T11:21:02;9.77;;;6.40;;
8540;SDS011;4308;51.294;6.590;2023-05-14T11:23:29;8.63;;;6.43;;
8540;SDS011;4308;51.294;6.590;2023-05-14T11:25:57;8.73;;;6.97;;
8540;SDS011;4308;51.294;6.590;2023-05-14T11:28:25;10.40;;;7.47;;
8540;SDS011;4308;51.294;6.590;2023-05-14T11:30:53;11.20;;;7.80;;
8540;SDS011;4308;51.294;6.590;2023-05-14T11:33:23;8.50;;;7.60;;
8540;SDS011;4308;51.294;6.590;2023-05-14T11:35:53;9.93;;;6.90;;
8540;SDS011;4308;51.294;6.590;2023-05-14T11:38:21;11.40;;;7.20;;
8540;SDS011;4308;51.294;6.590;2023-05-14T11:40:53;5.60;;;5.03;;
8540;SDS011;4308;51.294;6.590;2023-05-14T11:43:21;8.47;;;5.70;;
8540;SDS011;4308;51.294;6.590;2023-05-14T11:45:49;7.70;;;6.47;;
8540;SDS011;4308;51.294;6.590;2023-05-14T11:48:17;6.47;;;5.87;;
8540;SDS011;4308;51.294;6.590;2023-05-14T11:50:46;10.97;;;5.27;;
8540;SDS011;4308;51.294;6.590;2023-05-14T11:53:27;9.93;;;4.70;;
8540;SDS011;4308;51.294;6.590;2023-05-14T11:55:54;5.10;;;4.60;;
8540;SDS011;4308;51.294;6.590;2023-05-14T11:58:22;5.17;;;3.97;;
8540;SDS011;4308;51.294;6.590;2023-05-14T12:00:51;6.53;;;4.00;;
8540;SDS011;4308;51.294;6.590;2023-05-14T12:03:18;4.23;;;3.53;;
8540;SDS011;4308;51.294;6.590;2023-05-14T12:08:26;6.20;;;3.47;;
8540;SDS011;4308;51.294;6.590;2023-05-14T12:10:55;4.50;;;3.40;;
8540;SDS011;4308;51.294;6.590;2023-05-14T12:13:25;6.27;;;3.10;;
8540;SDS011;4308;51.294;6.590;2023-05-14T12:15:53;5.93;;;3.13;;
8540;SDS011;4308;51.294;6.590;2023-05-14T12:18:23;4.47;;;3.40;;
8540;SDS011;4308;51.294;6.590;2023-05-14T12:20:51;7.03;;;3.40;;
8540;SDS011;4308;51.294;6.590;2023-05-14T12:23:25;4.43;;;3.10;;
8540;SDS011;4308;51.294;6.590;2023-05-14T12:25:52;4.93;;;3.30;;
8540;SDS011;4308;51.294;6.590;2023-05-14T12:28:21;4.67;;;3.10;;
8540;SDS011;4308;51.294;6.590;2023-05-14T12:30:54;3.97;;;2.93;;
8540;SDS011;4308;51.294;6.590;2023-05-14T12:33:22;6.07;;;3.23;;
8540;SDS011;4308;51.294;6.590;2023-05-14T12:35:50;3.70;;;3.30;;
8540;SDS011;4308;51.294;6.590;2023-05-14T12:38:17;4.87;;;3.17;;
8540;SDS011;4308;51.294;6.590;2023-05-14T12:40:45;4.70;;;2.90;;
8540;SDS011;4308;51.294;6.590;2023-05-14T12:43:12;3.37;;;3.07;;
8540;SDS011;4308;51.294;6.590;2023-05-14T12:45:40;8.27;;;3.10;;
8540;SDS011;4308;51.294;6.590;2023-05-14T12:48:07;3.97;;;3.47;;
8540;SDS011;4308;51.294;6.590;2023-05-14T12:50:35;4.83;;;3.40;;
8540;SDS011;4308;51.294;6.590;2023-05-14T12:53:03;6.37;;;3.10;;
8540;SDS011;4308;51.294;6.590;2023-05-14T12:55:30;4.73;;;2.90;;
8540;SDS011;4308;51.294;6.590;2023-05-14T12:57:59;4.03;;;2.93;;
8540;SDS011;4308;51.294;6.590;2023-05-14T13:00:26;7.83;;;3.27;;
8540;SDS011;4308;51.294;6.590;2023-05-14T13:02:54;4.27;;;3.07;;
8540;SDS011;4308;51.294;6.590;2023-05-14T13:05:21;7.07;;;3.37;;
8540;SDS011;4308;51.294;6.590;2023-05-14T13:07:51;3.90;;;3.20;;
8540;SDS011;4308;51.294;6.590;2023-05-14T13:10:18;4.07;;;3.67;;
8540;SDS011;4308;51.294;6.590;2023-05-14T13:12:46;4.13;;;3.70;;
8540;SDS011;4308;51.294;6.590;2023-05-14T13:15:13;6.00;;;3.00;;
8540;SDS011;4308;51.294;6.590;2023-05-14T13:17:41;6.13;;;3.83;;
8540;SDS011;4308;51.294;6.590;2023-05-14T13:20:08;3.90;;;3.50;;
8540;SDS011;4308;51.294;6.590;2023-05-14T13:22:36;5.67;;;3.40;;
8540;SDS011;4308;51.294;6.590;2023-05-14T13:25:04;7.37;;;3.50;;
8540;SDS011;4308;51.294;6.590;2023-05-14T13:27:31;2.90;;;2.70;;
8540;SDS011;4308;51.294;6.590;2023-05-14T13:29:59;6.07;;;3.07;;
8540;SDS011;4308;51.294;6.590;2023-05-14T13:32:27;5.10;;;3.50;;
8540;SDS011;4308;51.294;6.590;2023-05-14T13:34:54;4.77;;;3.03;;
8540;SDS011;4308;51.294;6.590;2023-05-14T13:37:23;7.73;;;3.40;;
8540;SDS011;4308;51.294;6.590;2023-05-14T13:39:50;7.93;;;2.80;;
8540;SDS011;4308;51.294;6.590;2023-05-14T13:42:18;4.47;;;2.93;;
8540;SDS011;4308;51.294;6.590;2023-05-14T13:44:45;6.80;;;3.23;;
8540;SDS011;4308;51.294;6.590;2023-05-14T13:47:13;4.13;;;3.07;;
8540;SDS011;4308;51.294;6.590;2023-05-14T13:49:41;6.43;;;3.30;;
8540;SDS011;4308;51.294;6.590;2023-05-14T13:52:09;7.10;;;3.30;;
8540;SDS011;4308;51.294;6.590;2023-05-14T13:54:36;4.30;;;3.20;;
8540;SDS011;4308;51.294;6.590;2023-05-14T13:57:04;4.10;;;2.90;;
8540;SDS011;4308;51.294;6.590;2023-05-14T13:59:31;4.47;;;2.70;;
8540;SDS011;4308;51.294;6.590;2023-05-14T14:01:59;3.27;;;2.80;;
8540;SDS011;4308;51.294;6.590;2023-05-14T14:04:27;5.03;;;2.73;;
8540;SDS011;4308;51.294;6.590;2023-05-14T14:06:55;4.83;;;2.80;;
8540;SDS011;4308;51.294;6.590;2023-05-14T14:09:22;4.10;;;3.00;;
8540;SDS011;4308;51.294;6.590;2023-05-14T14:11:50;4.57;;;3.03;;
8540;SDS011;4308;51.294;6.590;2023-05-14T14:14:19;3.87;;;2.87;;
8540;SDS011;4308;51.294;6.590;2023-05-14T14:16:46;3.60;;;2.97;;
8540;SDS011;4308;51.294;6.590;2023-05-14T14:19:14;4.30;;;3.70;;
8540;SDS011;4308;51.294;6.590;2023-05-14T14:21:44;4.53;;;3.10;;
8540;SDS011;4308;51.294;6.590;2023-05-14T14:24:11;4.00;;;3.53;;
8540;SDS011;4308;51.294;6.590;2023-05-14T14:26:39;2.90;;;2.67;;
8540;SDS011;4308;51.294;6.590;2023-05-14T14:29:06;5.50;;;3.23;;
8540;SDS011;4308;51.294;6.590;2023-05-14T14:31:34;3.40;;;3.10;;
8540;SDS011;4308;51.294;6.590;2023-05-14T14:34:02;3.27;;;2.90;;
8540;SDS011;4308;51.294;6.590;2023-05-14T14:36:30;3.30;;;3.00;;
8540;SDS011;4308;51.294;6.590;2023-05-14T14:38:57;3.77;;;2.90;;
8540;SDS011;4308;51.294;6.590;2023-05-14T14:41:25;3.40;;;2.70;;
8540;SDS011;4308;51.294;6.590;2023-05-14T14:43:52;3.10;;;2.43;;
8540;SDS011;4308;51.294;6.590;2023-05-14T14:46:20;3.53;;;3.17;;
8540;SDS011;4308;51.294;6.590;2023-05-14T14:48:48;5.53;;;2.67;;
8540;SDS011;4308;51.294;6.590;2023-05-14T14:51:15;6.10;;;2.80;;
8540;SDS011;4308;51.294;6.590;2023-05-14T14:53:43;5.73;;;3.00;;
8540;SDS011;4308;51.294;6.590;2023-05-14T14:56:11;5.23;;;2.87;;
8540;SDS011;4308;51.294;6.590;2023-05-14T14:58:38;5.57;;;2.77;;
8540;SDS011;4308;51.294;6.590;2023-05-14T15:01:06;5.90;;;3.10;;
8540;SDS011;4308;51.294;6.590;2023-05-14T15:03:33;5.70;;;3.30;;